This is the latest recevied weather packets stored in our database for station/object DO7ZT-13. If no packets are shown the sender has not sent any weather packets the latest 10 day(s).
| Time | Temp. | Humidity | Pressure | Rain* | Wind** | Luminosity | Snow |
|---|---|---|---|---|---|---|---|
| 1778077827 | 18.89° C | 57% | 1005.7 hPa | 0 mm | 0 m/s | - | - |
| 1778077515 | 18.89° C | 61% | 1005.7 hPa | 0 mm | 0 m/s | - | - |
| 1778077227 | 20° C | 57% | 1005.7 hPa | 0 mm | 0 m/s | - | - |
| 1778076915 | 18.89° C | 62% | 1005.9 hPa | 0 mm | 0 m/s | - | - |
| 1778076627 | 18.89° C | 63% | 1005.9 hPa | 0 mm | 0.89 m/s, 295° | - | - |
| 1778076314 | 18.89° C | 59% | 1005.9 hPa | 0 mm | 0.45 m/s, 262° | - | - |
| 1778076027 | 20° C | 59% | 1005.8 hPa | 0 mm | 0.45 m/s, 278° | - | - |
| 1778075714 | 18.89° C | 60% | 1005.8 hPa | 0 mm | 0.45 m/s, 263° | - | - |
| 1778075427 | 18.89° C | 61% | 1005.8 hPa | 0 mm | 1.34 m/s, 302° | - | - |
| 1778075114 | 20° C | 60% | 1005.9 hPa | 0 mm | 0.89 m/s, 258° | - | - |
| 1778074827 | 20° C | 60% | 1005.9 hPa | 0 mm | 0.89 m/s, 251° | - | - |
| 1778074514 | 18.89° C | 61% | 1005.9 hPa | 0 mm | 0.45 m/s, 252° | - | - |
| 1778074226 | 18.89° C | 67% | 1006 hPa | 0 mm | 0.89 m/s, 306° | - | - |
| 1778073914 | 17.78° C | 67% | 1006 hPa | 0 mm | 0.45 m/s, 300° | - | - |
| 1778073626 | 17.78° C | 73% | 1006 hPa | 0 mm | 0 m/s | - | - |
| 1778073314 | 17.78° C | 62% | 1006.1 hPa | 0 mm | 0.89 m/s, 258° | - | - |
| 1778073027 | 17.78° C | 61% | 1006.1 hPa | 0 mm | 0.89 m/s, 258° | - | - |
| 1778072713 | 17.78° C | 61% | 1006.1 hPa | 0 mm | 1.34 m/s, 262° | - | - |
| 1778072426 | 18.89° C | 60% | 1006.1 hPa | 0 mm | 0.45 m/s, 258° | - | - |
| 1778072114 | 18.89° C | 58% | 1006.1 hPa | 0 mm | 1.34 m/s, 251° | - | - |
| 1778071838 | 18.89° C | 58% | 1006.1 hPa | 0 mm | 0.89 m/s, 252° | - | - |
| 1778071526 | 18.89° C | 58% | 1006 hPa | 0 mm | 0 m/s | - | - |
| 1778071213 | 18.89° C | 59% | 1006 hPa | 0 mm | 0.89 m/s, 257° | - | - |
| 1778070926 | 18.89° C | 57% | 1006 hPa | 0 mm | 1.34 m/s, 245° | - | - |
| 1778070613 | 18.89° C | 59% | 1006 hPa | 0 mm | 1.34 m/s, 330° | - | - |
* Rain latest hour (hover to see other rain measurements)
** Current wind speed in m/s (hover to see current wind gust speed)